Time;durP1;ratioP1;P1;durP2;ratioP2;P2;SDS_P1;SDS_P2;PMS_P1;PMS_P2;Temp;Humidity;BMP_temperature;BMP_pressure;BME280_temperature;BME280_humidity;BME280_pressure;Samples;Min_cycle;Max_cycle;Signal;HPM_P1;HPM_P2
2021/03/22 00:01:32;;;;;;;1.57;1.30;;;5.70;98.20;;;;;;5041825;28;20553;-76
2021/03/22 00:03:59;;;;;;;1.53;1.20;;;5.70;98.20;;;;;;5052528;28;20464;-76
2021/03/22 00:06:26;;;;;;;1.60;1.30;;;5.70;98.10;;;;;;5032691;28;20474;-77
2021/03/22 00:08:54;;;;;;;1.50;1.30;;;5.70;98.20;;;;;;5050894;28;20483;-78
2021/03/22 00:11:21;;;;;;;1.57;1.30;;;5.60;98.20;;;;;;5041625;28;20551;-77
2021/03/22 00:13:47;;;;;;;1.53;1.30;;;5.60;98.20;;;;;;5060527;28;20462;-76
2021/03/22 00:16:14;;;;;;;1.53;1.30;;;5.70;98.20;;;;;;5039812;28;20564;-77
2021/03/22 00:18:41;;;;;;;1.50;1.23;;;5.60;98.20;;;;;;5056575;28;20599;-78
2021/03/22 00:21:10;;;;;;;1.60;1.33;;;5.60;98.20;;;;;;5040093;28;20546;-75
2021/03/22 00:23:36;;;;;;;1.60;1.40;;;5.60;98.20;;;;;;5051476;28;20488;-79
2021/03/22 00:26:05;;;;;;;1.60;1.40;;;5.60;98.20;;;;;;5036928;28;20469;-78
2021/03/22 00:28:32;;;;;;;1.57;1.30;;;5.60;98.20;;;;;;5056345;28;20563;-78
2021/03/22 00:30:58;;;;;;;1.57;1.30;;;5.60;98.20;;;;;;5036039;28;21028;-76
2021/03/22 00:33:24;;;;;;;1.60;1.40;;;5.60;98.20;;;;;;5054991;28;20469;-78
2021/03/22 00:35:51;;;;;;;1.60;1.50;;;5.50;98.20;;;;;;5034998;28;20546;-76
2021/03/22 00:38:19;;;;;;;1.53;1.20;;;5.50;98.20;;;;;;5046478;28;20495;-78
2021/03/22 00:40:46;;;;;;;1.57;1.30;;;5.50;98.20;;;;;;5049799;28;20462;-76
2021/03/22 00:43:13;;;;;;;1.60;1.30;;;5.50;98.20;;;;;;5017922;28;20592;-79
2021/03/22 00:45:39;;;;;;;1.60;1.30;;;5.50;98.20;;;;;;5046960;28;20454;-76
2021/03/22 00:48:07;;;;;;;1.60;1.30;;;5.50;98.20;;;;;;5048043;28;20481;-79
2021/03/22 00:50:36;;;;;;;1.50;1.30;;;5.50;98.20;;;;;;5047561;28;20573;-77
2021/03/22 00:53:02;;;;;;;1.57;1.30;;;5.50;98.20;;;;;;5046592;28;20524;-77
2021/03/22 00:55:30;;;;;;;1.60;1.30;;;5.50;98.20;;;;;;5048114;28;20550;-76
2021/03/22 00:57:56;;;;;;;1.50;1.30;;;5.50;98.20;;;;;;5047750;28;20534;-79
2021/03/22 01:00:26;;;;;;;1.60;1.30;;;5.50;98.20;;;;;;5047113;28;20485;-76
2021/03/22 01:02:53;;;;;;;1.53;1.30;;;5.50;98.20;;;;;;5043674;28;20478;-77
2021/03/22 01:05:21;;;;;;;1.60;1.37;;;5.50;98.20;;;;;;5046850;28;20467;-76
2021/03/22 01:07:48;;;;;;;1.60;1.40;;;5.50;98.20;;;;;;5043552;28;20482;-76
2021/03/22 01:10:30;;;;;;;1.57;1.30;;;5.50;98.20;;;;;;5045087;28;20455;-76
2021/03/22 01:12:57;;;;;;;1.60;1.30;;;5.50;98.20;;;;;;5046166;28;20590;-76
2021/03/22 01:15:24;;;;;;;1.60;1.40;;;5.50;98.20;;;;;;5043356;28;20536;-77
2021/03/22 01:17:51;;;;;;;1.60;1.40;;;5.50;98.20;;;;;;5048966;28;20576;-76
2021/03/22 01:20:21;;;;;;;1.60;1.37;;;5.50;98.20;;;;;;5049483;28;20885;-77
2021/03/22 01:22:48;;;;;;;1.60;1.20;;;5.50;98.20;;;;;;5049093;28;20478;-77
2021/03/22 01:25:14;;;;;;;1.50;1.20;;;5.50;98.20;;;;;;5049979;28;20462;-78
2021/03/22 01:27:41;;;;;;;1.60;1.40;;;5.50;98.20;;;;;;5045739;28;20489;-76
2021/03/22 01:30:17;;;;;;;1.60;1.40;;;5.50;98.20;;;;;;5047566;28;20451;-76
2021/03/22 01:32:43;;;;;;;1.53;1.20;;;5.50;98.20;;;;;;5043327;28;20500;-77
2021/03/22 01:35:11;;;;;;;1.57;1.30;;;5.50;98.20;;;;;;5047050;28;20462;-77
2021/03/22 01:37:37;;;;;;;1.57;1.30;;;5.50;98.20;;;;;;5045591;28;20485;-75
2021/03/22 01:40:09;;;;;;;1.50;1.20;;;5.50;98.20;;;;;;5048578;28;20849;-76
2021/03/22 01:42:51;;;;;;;1.60;1.30;;;5.50;98.20;;;;;;5042815;28;20537;-76
2021/03/22 01:45:19;;;;;;;1.60;1.23;;;5.50;98.20;;;;;;5049356;28;20568;-76
2021/03/22 01:47:45;;;;;;;1.50;1.30;;;5.50;98.20;;;;;;5048710;28;20485;-80
2021/03/22 01:50:19;;;;;;;1.57;1.23;;;5.50;98.20;;;;;;5046615;28;20454;-75
2021/03/22 01:52:49;;;;;;;1.60;1.30;;;5.50;98.20;;;;;;5042087;28;20492;-77
2021/03/22 01:55:16;;;;;;;1.57;1.20;;;5.50;98.20;;;;;;5046132;28;20455;-78
2021/03/22 01:57:44;;;;;;;1.60;1.30;;;5.40;98.20;;;;;;5045810;28;20568;-77
2021/03/22 02:00:21;;;;;;;1.53;1.20;;;5.40;98.20;;;;;;5050554;28;20552;-79
2021/03/22 02:02:51;;;;;;;1.60;1.33;;;5.40;98.20;;;;;;5045876;28;20558;-78
2021/03/22 02:05:20;;;;;;;1.57;1.30;;;5.40;98.20;;;;;;5047320;28;20471;-80
2021/03/22 02:07:51;;;;;;;1.60;1.30;;;5.40;98.20;;;;;;5048463;28;20533;-75
2021/03/22 02:10:18;;;;;;;1.60;1.30;;;5.40;98.20;;;;;;5045711;28;20450;-79
2021/03/22 02:12:45;;;;;;;1.57;1.30;;;5.40;98.20;;;;;;5052563;28;20552;-78
2021/03/22 02:15:12;;;;;;;1.57;1.30;;;5.40;98.20;;;;;;5043466;28;20474;-76
2021/03/22 02:18:07;;;;;;;1.60;1.30;;;5.40;98.20;;;;;;5039540;28;20482;-78
2021/03/22 02:21:01;;;;;;;1.53;1.27;;;5.40;98.20;;;;;;5032459;28;20485;-76
2021/03/22 02:24:12;;;;;;;1.57;1.30;;;5.30;98.20;;;;;;5019270;28;20469;-76
2021/03/22 02:27:09;;;;;;;1.57;1.30;;;5.30;98.20;;;;;;5037640;28;20498;-77
2021/03/22 02:29:46;;;;;;;1.60;1.30;;;5.30;98.20;;;;;;5042727;28;20520;-76
2021/03/22 02:32:29;;;;;;;1.60;1.30;;;5.30;98.20;;;;;;5045167;28;20531;-76
2021/03/22 02:35:00;;;;;;;1.60;1.40;;;5.30;98.20;;;;;;5048456;28;20466;-76
2021/03/22 02:37:36;;;;;;;1.57;1.30;;;5.30;98.20;;;;;;5040262;28;20518;-76
2021/03/22 02:40:08;;;;;;;1.60;1.30;;;5.20;98.20;;;;;;5047916;28;20481;-79
2021/03/22 02:42:37;;;;;;;1.60;1.40;;;5.20;98.20;;;;;;5044750;28;20481;-75
2021/03/22 02:45:05;;;;;;;1.60;1.40;;;5.20;98.20;;;;;;5046249;28;20462;-76
2021/03/22 02:47:34;;;;;;;1.60;1.30;;;5.20;98.20;;;;;;5038818;28;20490;-76
2021/03/22 02:50:08;;;;;;;1.57;1.30;;;5.20;98.20;;;;;;5048239;28;20459;-76
2021/03/22 02:52:50;;;;;;;1.60;1.30;;;5.20;98.20;;;;;;5037323;28;20532;-76
2021/03/22 02:55:27;;;;;;;1.60;1.30;;;5.20;98.20;;;;;;5048777;28;20454;-77
2021/03/22 02:57:57;;;;;;;1.60;1.30;;;5.10;98.20;;;;;;5043117;28;20963;-77
2021/03/22 03:00:28;;;;;;;1.50;1.23;;;5.10;98.20;;;;;;5048072;28;20498;-77
2021/03/22 03:02:58;;;;;;;1.60;1.20;;;5.10;98.20;;;;;;5043355;28;20501;-78
2021/03/22 03:05:28;;;;;;;1.53;1.30;;;5.10;98.20;;;;;;5050074;28;20846;-77
2021/03/22 03:07:56;;;;;;;1.60;1.30;;;5.10;98.20;;;;;;5043939;28;20508;-76
2021/03/22 03:10:22;;;;;;;2.10;1.87;;;5.10;98.20;;;;;;5044761;28;20870;-76
2021/03/22 03:12:49;;;;;;;1.60;1.30;;;5.10;98.20;;;;;;5045065;28;20492;-77
2021/03/22 03:15:17;;;;;;;1.60;1.30;;;5.10;98.20;;;;;;5049004;28;20467;-78
2021/03/22 03:17:43;;;;;;;1.60;1.30;;;5.10;98.20;;;;;;5048257;28;20486;-77
2021/03/22 03:20:14;;;;;;;1.60;1.40;;;5.10;98.20;;;;;;5049383;28;20549;-77
2021/03/22 03:22:41;;;;;;;1.60;1.30;;;5.10;98.20;;;;;;5045484;28;20500;-78
2021/03/22 03:25:09;;;;;;;1.60;1.30;;;5.10;98.20;;;;;;5047899;28;20523;-77
2021/03/22 03:27:36;;;;;;;1.60;1.30;;;5.10;98.20;;;;;;5043690;28;21301;-78
2021/03/22 03:30:05;;;;;;;1.60;1.30;;;5.10;98.20;;;;;;5050111;28;20462;-78
2021/03/22 03:32:31;;;;;;;1.60;1.30;;;5.10;98.20;;;;;;5045327;28;20481;-77
2021/03/22 03:34:57;;;;;;;1.60;1.30;;;5.10;98.20;;;;;;5046523;28;20466;-79
2021/03/22 03:37:23;;;;;;;1.57;1.30;;;5.10;98.20;;;;;;5046476;28;20499;-76
2021/03/22 03:39:51;;;;;;;1.50;1.30;;;5.10;98.20;;;;;;5053665;28;20497;-77
2021/03/22 03:42:17;;;;;;;1.60;1.37;;;5.10;98.20;;;;;;5043601;28;20624;-77
2021/03/22 03:44:43;;;;;;;1.60;1.30;;;5.10;98.20;;;;;;5051298;28;21284;-76
2021/03/22 03:47:10;;;;;;;1.60;1.30;;;5.10;98.20;;;;;;5035885;28;20500;-77
2021/03/22 03:49:36;;;;;;;1.60;1.20;;;5.10;98.20;;;;;;5046502;28;21079;-76
2021/03/22 03:52:04;;;;;;;1.57;1.30;;;5.00;98.20;;;;;;5039122;28;20474;-77
2021/03/22 03:54:30;;;;;;;1.60;1.27;;;5.00;98.20;;;;;;5056316;28;20480;-77
2021/03/22 03:56:58;;;;;;;1.57;1.30;;;5.00;98.20;;;;;;5049182;28;20485;-78
2021/03/22 03:59:25;;;;;;;1.60;1.30;;;4.90;98.20;;;;;;5054386;28;20489;-77
2021/03/22 04:01:52;;;;;;;1.60;1.30;;;4.90;98.20;;;;;;5042631;28;20489;-79
2021/03/22 04:04:18;;;;;;;1.57;1.30;;;4.80;98.20;;;;;;5054718;28;20461;-77
2021/03/22 04:06:44;;;;;;;1.60;1.40;;;4.80;98.20;;;;;;5042600;28;21250;-76
2021/03/22 04:09:12;;;;;;;1.60;1.30;;;4.80;98.20;;;;;;5052396;28;20869;-78
2021/03/22 04:11:41;;;;;;;1.60;1.30;;;4.80;98.20;;;;;;5036935;28;20489;-77
2021/03/22 04:14:10;;;;;;;1.60;1.37;;;4.80;98.20;;;;;;5060005;28;20462;-76
2021/03/22 04:16:36;;;;;;;1.60;1.30;;;4.80;98.20;;;;;;5040183;28;21083;-76
2021/03/22 04:19:03;;;;;;;1.60;1.40;;;4.70;98.20;;;;;;5055155;28;21046;-79
2021/03/22 04:21:31;;;;;;;1.60;1.30;;;4.70;98.20;;;;;;5042852;28;20541;-79
2021/03/22 04:23:59;;;;;;;1.60;1.30;;;4.70;98.20;;;;;;5054729;28;20473;-77
2021/03/22 04:26:25;;;;;;;1.60;1.40;;;4.70;98.20;;;;;;5041384;28;20481;-77
2021/03/22 04:28:51;;;;;;;1.60;1.30;;;4.70;98.20;;;;;;5054512;28;20478;-76
2021/03/22 04:31:22;;;;;;;1.60;1.30;;;4.70;98.20;;;;;;5033538;28;20487;-76
2021/03/22 04:33:50;;;;;;;1.60;1.33;;;4.70;98.20;;;;;;5040577;28;20467;-76
2021/03/22 04:36:17;;;;;;;1.60;1.30;;;4.70;98.20;;;;;;5036577;28;20482;-77
2021/03/22 04:38:43;;;;;;;1.60;1.33;;;4.80;98.20;;;;;;5054904;28;20493;-77
2021/03/22 04:41:10;;;;;;;1.60;1.40;;;4.80;98.20;;;;;;5040082;28;20859;-78
2021/03/22 04:43:36;;;;;;;1.60;1.30;;;4.70;98.20;;;;;;5058764;28;20466;-76
2021/03/22 04:46:03;;;;;;;1.60;1.30;;;4.70;98.20;;;;;;5041931;28;20466;-77
2021/03/22 04:48:30;;;;;;;1.60;1.30;;;4.70;98.20;;;;;;5054560;28;20579;-76
2021/03/22 04:50:56;;;;;;;1.60;1.30;;;4.70;98.20;;;;;;5042138;28;20454;-78
2021/03/22 04:53:23;;;;;;;1.60;1.40;;;4.70;98.20;;;;;;5058567;28;20459;-78
2021/03/22 04:55:49;;;;;;;1.60;1.40;;;4.70;98.20;;;;;;5042003;28;20502;-77
2021/03/22 04:58:15;;;;;;;1.60;1.30;;;4.70;98.20;;;;;;5045170;28;20490;-76
2021/03/22 05:00:44;;;;;;;1.60;1.30;;;4.60;98.20;;;;;;5044596;28;20483;-77
2021/03/22 05:03:14;;;;;;;1.60;1.40;;;4.60;98.20;;;;;;5018000;28;21012;-79
2021/03/22 05:05:41;;;;;;;1.60;1.30;;;4.60;98.20;;;;;;5050174;28;20467;-77
2021/03/22 05:08:11;;;;;;;1.50;1.30;;;4.70;98.20;;;;;;5046640;28;20992;-78
2021/03/22 05:10:42;;;;;;;1.60;1.30;;;4.70;98.20;;;;;;5050555;28;20796;-78
2021/03/22 05:13:10;;;;;;;1.60;1.40;;;4.70;98.20;;;;;;5049512;28;21209;-76
2021/03/22 05:15:37;;;;;;;1.60;1.30;;;4.70;98.20;;;;;;5045643;28;20459;-77
2021/03/22 05:18:04;;;;;;;1.60;1.20;;;4.70;98.20;;;;;;5047950;28;20498;-75
2021/03/22 05:20:33;;;;;;;1.60;1.40;;;4.70;98.20;;;;;;5050180;28;20489;-76
2021/03/22 05:23:02;;;;;;;1.60;1.40;;;4.70;98.20;;;;;;5046503;28;20482;-77
2021/03/22 05:25:28;;;;;;;1.60;1.40;;;4.70;98.20;;;;;;5047260;28;20471;-77
2021/03/22 05:27:54;;;;;;;1.60;1.20;;;4.70;98.20;;;;;;5043364;28;20539;-78
2021/03/22 05:30:22;;;;;;;1.60;1.30;;;4.60;98.20;;;;;;5046184;28;20547;-75
2021/03/22 05:32:49;;;;;;;1.60;1.40;;;4.60;98.20;;;;;;5043521;28;20486;-77
2021/03/22 05:35:18;;;;;;;1.60;1.40;;;4.60;98.20;;;;;;5055368;28;20498;-77
2021/03/22 05:37:45;;;;;;;1.60;1.40;;;4.60;98.20;;;;;;5050857;28;20535;-76
2021/03/22 05:40:22;;;;;;;1.60;1.40;;;4.60;98.20;;;;;;5050616;28;20494;-77
2021/03/22 05:42:59;;;;;;;1.60;1.30;;;4.60;98.20;;;;;;5046412;28;20485;-77
2021/03/22 05:45:41;;;;;;;1.60;1.30;;;4.60;98.20;;;;;;5053029;28;20453;-77
2021/03/22 05:48:25;;;;;;;1.60;1.40;;;4.60;98.20;;;;;;5029427;28;20483;-76
2021/03/22 05:51:06;;;;;;;1.60;1.30;;;4.60;98.20;;;;;;5039118;28;20450;-77
2021/03/22 05:53:47;;;;;;;1.60;1.30;;;4.60;98.20;;;;;;5057857;28;20450;-76
2021/03/22 05:56:22;;;;;;;1.60;1.30;;;4.60;98.20;;;;;;5041839;28;20489;-75
2021/03/22 05:59:18;;;;;;;1.60;1.33;;;4.60;98.20;;;;;;5056538;28;20825;-77
2021/03/22 06:01:47;;;;;;;1.60;1.30;;;4.60;98.20;;;;;;5043643;28;20489;-76
2021/03/22 06:04:22;;;;;;;1.60;1.30;;;4.60;98.20;;;;;;5052053;28;20544;-76
2021/03/22 06:06:49;;;;;;;1.53;1.30;;;4.60;98.20;;;;;;5043423;28;20572;-77
2021/03/22 06:09:30;;;;;;;1.60;1.40;;;4.60;98.20;;;;;;5048068;28;20577;-77
2021/03/22 06:12:06;;;;;;;1.60;1.50;;;4.70;98.20;;;;;;5043564;28;21002;-76
2021/03/22 06:14:47;;;;;;;1.60;1.30;;;4.70;98.20;;;;;;5048607;28;20467;-78
2021/03/22 06:17:20;;;;;;;1.60;1.30;;;4.80;98.20;;;;;;5038336;28;20894;-78
2021/03/22 07:00:16;;;;;;;1.60;1.30;;;5.20;98.20;;;;;;5023406;28;20541;-80
2021/03/22 07:02:44;;;;;;;1.60;1.30;;;5.30;98.20;;;;;;5015847;28;20546;-82
2021/03/22 07:05:34;;;;;;;1.60;1.40;;;5.30;98.20;;;;;;5015937;28;20476;-80
2021/03/22 07:08:06;;;;;;;1.60;1.30;;;5.40;98.20;;;;;;5026354;28;20867;-81
2021/03/22 07:10:36;;;;;;;1.57;1.30;;;5.40;98.20;;;;;;5017395;28;20459;-81
2021/03/22 07:13:27;;;;;;;1.60;1.30;;;5.50;98.20;;;;;;5025233;28;20487;-80
2021/03/22 07:16:15;;;;;;;1.50;1.30;;;5.50;98.20;;;;;;5008390;28;20502;-80
2021/03/22 07:18:43;;;;;;;1.60;1.30;;;5.50;98.20;;;;;;5032841;28;20537;-81
2021/03/22 07:21:13;;;;;;;1.60;1.30;;;5.60;98.20;;;;;;5006241;28;20486;-82
2021/03/22 07:23:55;;;;;;;1.60;1.30;;;5.60;98.20;;;;;;5035025;28;20510;-80
2021/03/22 07:26:31;;;;;;;1.60;1.20;;;5.60;98.20;;;;;;5003724;28;21077;-79
2021/03/22 07:29:27;;;;;;;1.60;1.40;;;5.60;98.20;;;;;;5036135;28;20466;-80
2021/03/22 07:32:05;;;;;;;1.60;1.20;;;5.70;98.20;;;;;;4941152;28;20482;-81
2021/03/22 07:34:53;;;;;;;1.53;1.30;;;5.70;98.20;;;;;;5019546;28;20491;-81
2021/03/22 07:37:42;;;;;;;1.60;1.40;;;5.80;98.20;;;;;;5016307;28;21048;-81
2021/03/22 07:40:28;;;;;;;1.53;1.20;;;5.80;98.20;;;;;;5020995;28;20921;-80
2021/03/22 07:43:09;;;;;;;1.60;1.30;;;5.90;98.20;;;;;;5018052;28;20487;-80
2021/03/22 07:45:58;;;;;;;1.57;1.30;;;6.00;98.20;;;;;;5020747;28;20629;-80
2021/03/22 07:48:43;;;;;;;1.57;1.20;;;6.10;98.20;;;;;;5007576;28;20463;-80
2021/03/22 07:51:32;;;;;;;1.53;1.20;;;6.20;98.20;;;;;;5003337;28;20471;-80
2021/03/22 07:54:09;;;;;;;1.60;1.20;;;6.30;98.20;;;;;;5020171;28;20495;-79
2021/03/22 07:56:51;;;;;;;1.57;1.20;;;6.30;98.20;;;;;;5012871;28;20482;-80
2021/03/22 07:59:29;;;;;;;1.90;1.80;;;6.30;98.20;;;;;;5013275;28;20531;-81
2021/03/22 08:02:10;;;;;;;1.60;1.30;;;6.30;98.20;;;;;;5007237;28;20486;-80
2021/03/22 08:04:49;;;;;;;1.57;1.20;;;6.40;98.20;;;;;;5011978;28;20471;-79
2021/03/22 08:08:03;;;;;;;1.60;1.27;;;6.50;98.20;;;;;;5018415;28;21019;-80
2021/03/22 08:10:43;;;;;;;1.57;1.20;;;6.60;98.20;;;;;;4956858;28;20495;-80
2021/03/22 08:13:24;;;;;;;1.50;1.20;;;6.70;98.20;;;;;;5018971;28;20495;-80
2021/03/22 08:15:59;;;;;;;1.53;1.20;;;6.70;98.20;;;;;;5017270;28;20482;-80
2021/03/22 08:18:31;;;;;;;1.57;1.20;;;6.80;98.20;;;;;;5028569;28;20468;-81
2021/03/22 08:21:08;;;;;;;1.70;1.60;;;6.80;98.20;;;;;;5006273;28;20492;-80
2021/03/22 08:23:47;;;;;;;1.53;1.20;;;6.80;98.20;;;;;;5028033;28;20550;-82
2021/03/22 08:26:21;;;;;;;1.60;1.43;;;6.80;98.20;;;;;;5014844;28;20527;-81
2021/03/22 08:29:03;;;;;;;2.77;2.57;;;6.80;98.20;;;;;;5022356;28;20457;-79
2021/03/22 08:31:41;;;;;;;1.60;1.27;;;6.90;98.20;;;;;;5014357;28;20604;-80
2021/03/22 08:34:17;;;;;;;1.50;1.20;;;6.90;98.20;;;;;;5018233;28;20452;-81
2021/03/22 08:36:52;;;;;;;1.57;1.20;;;6.90;98.20;;;;;;5017382;28;20506;-81
2021/03/22 08:39:24;;;;;;;1.60;1.23;;;7.00;98.20;;;;;;5022154;28;20482;-82
2021/03/22 08:42:07;;;;;;;1.53;1.20;;;7.20;98.20;;;;;;5026688;28;20490;-82
2021/03/22 08:44:38;;;;;;;1.50;1.20;;;7.50;98.20;;;;;;5034966;28;20505;-81
2021/03/22 08:47:19;;;;;;;1.57;1.20;;;7.70;98.20;;;;;;5025924;28;21027;-80
2021/03/22 08:49:57;;;;;;;1.53;1.20;;;7.80;98.20;;;;;;5020068;28;20464;-81
2021/03/22 08:52:33;;;;;;;1.53;1.20;;;8.00;98.20;;;;;;5024576;28;20483;-82
2021/03/22 08:55:04;;;;;;;1.60;1.30;;;8.30;98.20;;;;;;5029593;28;20467;-79
2021/03/22 08:57:36;;;;;;;1.60;1.20;;;8.50;98.10;;;;;;5019866;28;20492;-81
2021/03/22 09:00:37;;;;;;;1.57;1.20;;;8.60;97.20;;;;;;5015882;28;20508;-79
2021/03/22 09:03:24;;;;;;;1.60;1.30;;;8.90;97.20;;;;;;5012753;28;21040;-81
2021/03/22 09:06:17;;;;;;;2.50;2.30;;;9.00;96.10;;;;;;5003472;28;20521;-81
2021/03/22 09:09:06;;;;;;;1.60;1.10;;;9.20;95.70;;;;;;5026667;28;20465;-83
2021/03/22 09:11:45;;;;;;;1.53;1.07;;;9.30;95.30;;;;;;5018740;28;20475;-80
2021/03/22 09:14:45;;;;;;;1.53;1.10;;;9.30;94.60;;;;;;5028582;28;20470;-81
2021/03/22 09:17:34;;;;;;;1.53;1.10;;;9.30;93.90;;;;;;5005391;28;20515;-81
2021/03/22 09:20:25;;;;;;;1.60;1.20;;;9.10;93.90;;;;;;5021863;28;20479;-81
2021/03/22 09:22:58;;;;;;;1.53;1.10;;;9.00;94.80;;;;;;5023991;28;20487;-81
2021/03/22 09:26:01;;;;;;;1.60;1.13;;;8.90;95.30;;;;;;5025846;28;20767;-82
2021/03/22 09:28:39;;;;;;;1.57;1.20;;;8.80;95.40;;;;;;5004606;28;20501;-81
2021/03/22 09:31:28;;;;;;;1.50;1.10;;;8.70;95.40;;;;;;5024603;28;20456;-78
2021/03/22 09:34:04;;;;;;;1.57;1.20;;;8.60;96.10;;;;;;5010348;28;20465;-80
2021/03/22 09:36:39;;;;;;;1.50;1.10;;;8.60;96.00;;;;;;4990542;28;20514;-79
2021/03/22 09:39:34;;;;;;;1.53;1.20;;;8.40;95.40;;;;;;5008804;28;20452;-81
2021/03/22 09:42:15;;;;;;;1.60;1.10;;;8.30;95.70;;;;;;4986841;28;20484;-81
2021/03/22 09:45:25;;;;;;;1.57;1.10;;;8.30;96.80;;;;;;5001105;28;21060;-81
2021/03/22 09:48:22;;;;;;;1.57;1.13;;;8.20;97.00;;;;;;4962976;28;20480;-79
2021/03/22 09:50:57;;;;;;;1.53;1.10;;;8.10;97.40;;;;;;4993539;28;20553;-80
2021/03/22 09:53:37;;;;;;;1.60;1.20;;;8.10;97.60;;;;;;5018380;28;20455;-81
2021/03/22 09:56:21;;;;;;;1.57;1.20;;;8.00;97.60;;;;;;5009999;28;20923;-82
2021/03/22 09:58:52;;;;;;;1.57;1.20;;;8.00;98.20;;;;;;5010810;28;20966;-80
2021/03/22 10:01:41;;;;;;;1.50;1.10;;;8.00;98.10;;;;;;4995262;28;20544;-80
2021/03/22 10:04:28;;;;;;;1.57;1.20;;;8.00;97.80;;;;;;4992405;28;20480;-80
2021/03/22 10:07:12;;;;;;;1.57;1.20;;;8.10;97.90;;;;;;4990961;28;21008;-80
2021/03/22 10:10:17;;;;;;;1.53;1.10;;;8.20;97.40;;;;;;5016071;28;20452;-81
2021/03/22 10:12:48;;;;;;;1.53;1.20;;;8.20;96.40;;;;;;4977330;28;20480;-82
2021/03/22 10:15:27;;;;;;;1.50;1.10;;;8.30;97.20;;;;;;5001209;28;20487;-79
2021/03/22 10:18:08;;;;;;;1.53;1.10;;;8.30;97.00;;;;;;5005806;28;20487;-80
2021/03/22 10:20:39;;;;;;;1.53;1.10;;;8.40;96.60;;;;;;5020849;28;20495;-80
2021/03/22 10:23:21;;;;;;;1.50;1.20;;;8.50;96.60;;;;;;5005438;28;20492;-80
2021/03/22 10:25:53;;;;;;;1.57;1.13;;;8.50;96.10;;;;;;4985887;28;20526;-80
2021/03/22 10:28:30;;;;;;;1.57;1.10;;;8.50;95.40;;;;;;5015276;28;20460;-79
2021/03/22 10:31:06;;;;;;;1.53;1.17;;;8.50;95.10;;;;;;4990467;28;20464;-80
2021/03/22 10:33:33;;;;;;;1.53;1.10;;;8.50;94.80;;;;;;5003985;28;20991;-81
2021/03/22 10:36:08;;;;;;;1.50;1.13;;;8.40;95.30;;;;;;4987223;28;20485;-81
2021/03/22 10:38:40;;;;;;;1.50;1.10;;;8.40;95.30;;;;;;4995290;28;20459;-81
2021/03/22 10:41:30;;;;;;;1.53;1.10;;;8.40;95.40;;;;;;4990682;28;20481;-78
2021/03/22 10:44:00;;;;;;;1.60;1.20;;;8.50;95.40;;;;;;4993885;28;20974;-80
2021/03/22 10:46:35;;;;;;;1.50;1.20;;;8.50;95.10;;;;;;4991075;28;20543;-80
2021/03/22 10:49:09;;;;;;;1.53;1.10;;;8.50;94.60;;;;;;5008144;28;20920;-80
2021/03/22 10:51:44;;;;;;;1.53;1.10;;;8.50;94.80;;;;;;4993002;28;20562;-78
2021/03/22 10:54:17;;;;;;;1.53;1.10;;;8.50;94.60;;;;;;5001644;28;20537;-80
2021/03/22 10:56:54;;;;;;;1.57;1.17;;;8.50;94.50;;;;;;4996253;28;20487;-79
2021/03/22 10:59:26;;;;;;;1.53;1.20;;;8.60;93.90;;;;;;5006566;28;21015;-79
2021/03/22 11:01:57;;;;;;;1.50;1.17;;;8.60;94.10;;;;;;5002327;28;20483;-80
2021/03/22 11:04:29;;;;;;;1.50;1.20;;;8.70;94.00;;;;;;5004190;28;20464;-79
2021/03/22 11:07:01;;;;;;;1.53;1.13;;;8.70;93.70;;;;;;4996844;28;20609;-80
2021/03/22 11:09:29;;;;;;;1.53;1.10;;;8.80;93.50;;;;;;4998985;28;20457;-80
2021/03/22 11:12:00;;;;;;;1.50;1.00;;;8.80;93.70;;;;;;5000899;28;20878;-80
2021/03/22 11:14:36;;;;;;;1.50;1.07;;;8.90;93.40;;;;;;5005573;28;20465;-80
2021/03/22 11:17:20;;;;;;;1.50;1.07;;;8.90;93.80;;;;;;4994279;28;20579;-80
2021/03/22 11:19:52;;;;;;;1.53;1.20;;;9.00;92.40;;;;;;4998762;28;20497;-79
2021/03/22 11:22:37;;;;;;;1.57;1.10;;;9.00;92.80;;;;;;4997387;28;20563;-80
2021/03/22 11:25:38;;;;;;;1.50;1.10;;;9.00;92.90;;;;;;4994835;28;20468;-79
2021/03/22 11:28:24;;;;;;;1.53;1.20;;;9.00;92.50;;;;;;5004879;28;20741;-80
2021/03/22 11:31:06;;;;;;;1.50;1.00;;;9.00;92.00;;;;;;4988947;28;20929;-78
2021/03/22 11:33:41;;;;;;;1.50;1.10;;;9.00;91.90;;;;;;5007927;28;20460;-78
2021/03/22 11:36:15;;;;;;;1.50;1.10;;;9.00;91.80;;;;;;4993825;28;20907;-79
2021/03/22 11:38:55;;;;;;;1.60;1.20;;;9.00;92.40;;;;;;5010659;28;20468;-79
2021/03/22 11:41:33;;;;;;;1.50;1.10;;;9.00;91.60;;;;;;4982302;28;20549;-78
2021/03/22 11:44:23;;;;;;;1.50;1.10;;;9.10;92.00;;;;;;5007308;28;20465;-78
2021/03/22 11:47:08;;;;;;;1.50;1.10;;;9.10;91.70;;;;;;4993107;28;20903;-78
2021/03/22 11:49:44;;;;;;;1.50;1.10;;;9.10;91.90;;;;;;5007625;28;20472;-79
2021/03/22 11:52:21;;;;;;;1.50;1.10;;;9.10;92.30;;;;;;5001310;28;20486;-81
2021/03/22 11:54:57;;;;;;;1.50;1.00;;;9.10;92.00;;;;;;5000693;28;20461;-77
2021/03/22 11:57:28;;;;;;;1.50;1.10;;;9.10;91.80;;;;;;4997356;28;20523;-78
2021/03/22 11:59:58;;;;;;;1.50;1.10;;;9.10;92.20;;;;;;5005023;28;20724;-78
2021/03/22 12:02:32;;;;;;;1.60;1.20;;;9.00;92.00;;;;;;5003585;28;20645;-79
2021/03/22 12:05:04;;;;;;;1.57;1.10;;;9.00;91.80;;;;;;4995618;28;20761;-79
2021/03/22 12:07:42;;;;;;;1.50;1.10;;;8.90;92.20;;;;;;5010508;28;20480;-79
2021/03/22 12:10:18;;;;;;;1.57;1.10;;;8.90;91.80;;;;;;5001318;28;20508;-78
2021/03/22 12:12:48;;;;;;;1.50;1.00;;;8.90;92.30;;;;;;4992337;28;20492;-78
2021/03/22 12:15:19;;;;;;;1.50;1.10;;;9.00;91.90;;;;;;4997226;28;20504;-78
2021/03/22 12:17:51;;;;;;;1.57;1.10;;;9.10;92.20;;;;;;5007521;28;20511;-79
2021/03/22 12:20:21;;;;;;;1.50;1.10;;;9.20;92.40;;;;;;4996677;28;20497;-79
2021/03/22 12:22:48;;;;;;;1.53;1.10;;;9.30;92.30;;;;;;4995364;28;20485;-79
2021/03/22 12:25:18;;;;;;;1.57;1.10;;;9.40;91.70;;;;;;4992775;28;21181;-78
2021/03/22 12:27:47;;;;;;;1.53;1.10;;;9.50;90.70;;;;;;5006489;28;20507;-80
2021/03/22 12:30:21;;;;;;;1.53;1.10;;;9.50;90.20;;;;;;5019609;28;20531;-79
2021/03/22 12:32:53;;;;;;;1.50;1.10;;;9.50;89.60;;;;;;5015199;28;20533;-80
2021/03/22 12:35:29;;;;;;;1.53;1.10;;;9.50;90.00;;;;;;5010888;28;20499;-79
2021/03/22 12:38:02;;;;;;;1.53;1.10;;;9.50;89.70;;;;;;4997986;28;20504;-79
2021/03/22 12:40:40;;;;;;;1.50;1.10;;;9.50;90.00;;;;;;5003487;28;20559;-80
2021/03/22 12:43:11;;;;;;;1.60;1.10;;;9.50;90.10;;;;;;5019685;28;20486;-78
2021/03/22 12:45:38;;;;;;;1.50;1.10;;;9.40;89.60;;;;;;5022110;28;20555;-79
2021/03/22 12:48:15;;;;;;;1.50;1.00;;;9.40;89.80;;;;;;5001832;28;20527;-79
2021/03/22 12:50:50;;;;;;;1.50;1.10;;;9.30;90.50;;;;;;4995597;28;20905;-79
2021/03/22 12:53:19;;;;;;;1.57;1.10;;;9.20;91.20;;;;;;4979569;28;20488;-81
2021/03/22 12:55:53;;;;;;;1.53;1.10;;;9.20;91.60;;;;;;4999118;28;20477;-79
2021/03/22 12:58:22;;;;;;;1.50;1.00;;;9.10;92.00;;;;;;4978462;28;20588;-79
2021/03/22 13:00:51;;;;;;;1.50;1.10;;;9.10;91.80;;;;;;4991565;28;20484;-77
2021/03/22 13:03:20;;;;;;;1.60;1.20;;;9.00;92.20;;;;;;5008548;28;20879;-79
2021/03/22 13:05:47;;;;;;;1.50;1.10;;;9.00;92.50;;;;;;4992036;28;20879;-79
2021/03/22 13:08:19;;;;;;;1.57;1.17;;;9.00;92.20;;;;;;5016003;28;20563;-78
2021/03/22 13:10:51;;;;;;;1.60;1.20;;;9.00;92.30;;;;;;4998593;28;20500;-78
2021/03/22 13:13:18;;;;;;;1.53;1.20;;;9.00;92.20;;;;;;4986029;28;20477;-80
2021/03/22 13:15:54;;;;;;;1.53;1.30;;;8.80;92.30;;;;;;4992924;28;20496;-80
2021/03/22 13:18:39;;;;;;;1.60;1.20;;;8.80;92.60;;;;;;5110339;27;20570;-79
2021/03/22 13:21:13;;;;;;;1.50;1.10;;;8.80;92.30;;;;;;5089862;28;20494;-80
2021/03/22 13:23:40;;;;;;;1.50;1.17;;;8.70;92.50;;;;;;5108544;28;20494;-78
2021/03/22 13:26:09;;;;;;;1.57;1.10;;;8.70;92.80;;;;;;5073083;28;21076;-79
2021/03/22 13:28:38;;;;;;;1.53;1.20;;;8.70;92.60;;;;;;5077921;28;20469;-79
2021/03/22 13:31:07;;;;;;;1.57;1.17;;;8.80;92.50;;;;;;5066001;28;20453;-79
2021/03/22 13:33:46;;;;;;;1.50;1.10;;;8.80;92.50;;;;;;5093907;28;20469;-79
2021/03/22 13:36:16;;;;;;;1.57;1.20;;;8.70;92.50;;;;;;5078073;28;20476;-79
2021/03/22 13:38:42;;;;;;;1.50;1.10;;;8.70;92.90;;;;;;5084014;28;20466;-79
2021/03/22 13:41:24;;;;;;;1.50;1.10;;;8.70;92.80;;;;;;5063539;28;20538;-79
2021/03/22 13:43:57;;;;;;;1.57;1.20;;;8.70;92.70;;;;;;5080337;28;20573;-79
2021/03/22 13:46:30;;;;;;;1.50;1.10;;;8.70;92.60;;;;;;5071544;28;20497;-79
2021/03/22 13:48:57;;;;;;;1.60;1.30;;;8.70;92.90;;;;;;5091282;28;20462;-80
2021/03/22 13:51:30;;;;;;;1.50;1.07;;;8.80;93.30;;;;;;5059838;28;20496;-79
2021/03/22 13:53:59;;;;;;;1.60;1.20;;;8.90;93.40;;;;;;5074594;28;20883;-79
2021/03/22 13:56:33;;;;;;;1.57;1.20;;;9.00;93.20;;;;;;5066090;28;20497;-80
2021/03/22 13:59:04;;;;;;;1.53;1.10;;;9.10;92.80;;;;;;5081940;28;20458;-79
2021/03/22 14:01:30;;;;;;;1.53;1.10;;;9.10;92.70;;;;;;5067129;28;20501;-79
2021/03/22 14:04:00;;;;;;;1.50;1.10;;;9.20;92.60;;;;;;5083464;28;20465;-79
2021/03/22 14:06:26;;;;;;;1.53;1.17;;;9.30;92.20;;;;;;5068854;28;20560;-79
2021/03/22 14:08:53;;;;;;;1.50;1.07;;;9.30;92.30;;;;;;5083241;28;20746;-79
2021/03/22 14:11:22;;;;;;;1.50;1.10;;;9.30;91.80;;;;;;5062373;28;20486;-79
2021/03/22 14:13:48;;;;;;;1.50;1.20;;;9.30;91.70;;;;;;5081468;28;20461;-79